createdAt,value
2023-01-26T00:01:48.731Z,101492.63
2023-01-26T00:04:17.006Z,101491.39
2023-01-26T00:06:45.164Z,101496.74
2023-01-26T00:09:14.599Z,101489.41
2023-01-26T00:11:42.995Z,101493.84
2023-01-26T00:14:11.309Z,101487.68
2023-01-26T00:16:39.729Z,101486.98
2023-01-26T00:19:07.704Z,101488.20
2023-01-26T00:21:36.380Z,101489.15
2023-01-26T00:24:04.754Z,101491.45
2023-01-26T00:26:33.872Z,101494.72
2023-01-26T00:29:02.330Z,101491.84
2023-01-26T00:31:30.553Z,101489.74
2023-01-26T00:34:00.716Z,101490.94
2023-01-26T00:36:29.137Z,101492.94
2023-01-26T00:38:57.584Z,101487.22
2023-01-26T00:41:44.348Z,101489.33
2023-01-26T00:44:12.772Z,101489.56
2023-01-26T00:46:41.135Z,101490.67
2023-01-26T00:49:10.821Z,101486.36
2023-01-26T00:51:39.077Z,101484.45
2023-01-26T00:54:07.053Z,101485.30
2023-01-26T00:56:36.036Z,101485.20
2023-01-26T00:59:04.288Z,101484.04
2023-01-26T01:01:32.587Z,101489.54
2023-01-26T01:04:01.752Z,101486.59
2023-01-26T01:06:30.327Z,101479.84
2023-01-26T01:08:58.352Z,101481.69
2023-01-26T01:11:26.419Z,101478.82
2023-01-26T01:13:54.546Z,101475.48
2023-01-26T01:16:22.812Z,101474.15
2023-01-26T01:18:55.103Z,101474.61
2023-01-26T01:21:23.797Z,101473.63
2023-01-26T01:23:52.115Z,101476.03
2023-01-26T01:26:20.357Z,101472.09
2023-01-26T01:28:48.603Z,101467.80
2023-01-26T01:31:17.036Z,101470.70
2023-01-26T01:33:45.124Z,101466.26
2023-01-26T01:36:15.378Z,101470.45
2023-01-26T01:38:44.346Z,101464.44
2023-01-26T01:41:17.353Z,101465.69
2023-01-26T01:43:45.637Z,101463.56
2023-01-26T01:46:35.915Z,101460.97
2023-01-26T01:49:17.935Z,101457.56
2023-01-26T01:52:11.313Z,101451.78
2023-01-26T01:54:48.965Z,101450.52
2023-01-26T01:57:28.015Z,101450.82
2023-01-26T02:00:00.765Z,101447.59
2023-01-26T02:02:29.153Z,101449.79
2023-01-26T02:04:58.036Z,101450.45
2023-01-26T02:07:30.543Z,101451.31
2023-01-26T02:10:17.741Z,101443.10
2023-01-26T02:12:51.256Z,101441.98
2023-01-26T02:15:19.295Z,101440.38
2023-01-26T02:17:47.497Z,101435.03
2023-01-26T02:20:43.321Z,101432.63
2023-01-26T02:23:14.554Z,101425.14
2023-01-26T02:25:53.082Z,101416.66
2023-01-26T02:28:22.510Z,101410.65
2023-01-26T02:30:50.871Z,101410.33
2023-01-26T02:33:22.516Z,101411.45
2023-01-26T02:35:51.032Z,101410.89
2023-01-26T02:38:20.383Z,101410.77
2023-01-26T02:40:55.159Z,101413.36
2023-01-26T02:43:24.628Z,101413.33
2023-01-26T02:45:52.839Z,101421.10
2023-01-26T02:48:39.668Z,101418.40
2023-01-26T02:51:08.275Z,101415.29
2023-01-26T02:53:36.303Z,101416.37
2023-01-26T02:56:05.126Z,101415.00
2023-01-26T02:58:35.184Z,101413.36
2023-01-26T03:01:03.570Z,101408.09
2023-01-26T03:03:45.228Z,101403.88
2023-01-26T03:06:15.399Z,101398.27
2023-01-26T03:08:43.706Z,101392.88
2023-01-26T03:11:11.734Z,101389.13
2023-01-26T03:13:40.161Z,101387.59
2023-01-26T03:16:10.386Z,101390.31
2023-01-26T03:18:57.649Z,101384.38
2023-01-26T03:21:44.831Z,101383.63
2023-01-26T03:24:33.343Z,101379.66
2023-01-26T03:27:21.450Z,101380.23
2023-01-26T03:29:49.621Z,101380.63
2023-01-26T03:32:19.024Z,101381.71
2023-01-26T03:34:48.168Z,101379.55
2023-01-26T03:37:16.267Z,101386.96
2023-01-26T03:40:14.097Z,101379.71
2023-01-26T03:43:01.795Z,101378.03
2023-01-26T03:45:49.425Z,101369.77
2023-01-26T03:48:36.544Z,101374.09
2023-01-26T03:51:24.815Z,101372.73
2023-01-26T03:54:11.931Z,101371.35
2023-01-26T03:56:40.569Z,101364.42
2023-01-26T03:59:16.000Z,101362.92
2023-01-26T04:02:04.893Z,101365.77
2023-01-26T04:04:53.596Z,101366.50
2023-01-26T04:07:44.691Z,101372.73
2023-01-26T04:10:13.432Z,101370.59
2023-01-26T04:12:42.022Z,101364.03
2023-01-26T04:15:34.956Z,101366.90
2023-01-26T04:18:28.123Z,101368.78
2023-01-26T04:21:15.908Z,101367.42
2023-01-26T04:23:45.493Z,101371.73
2023-01-26T04:26:13.860Z,101375.04
2023-01-26T04:28:42.658Z,101375.74
2023-01-26T04:31:11.232Z,101377.38
2023-01-26T04:33:40.067Z,101380.20
2023-01-26T04:36:08.843Z,101377.64
2023-01-26T04:38:40.409Z,101377.56
2023-01-26T04:41:08.946Z,101375.89
2023-01-26T04:43:43.957Z,101374.26
2023-01-26T04:46:12.000Z,101373.84
2023-01-26T04:48:41.451Z,101370.83
2023-01-26T04:51:14.929Z,101374.27
2023-01-26T04:53:43.338Z,101370.77
2023-01-26T04:56:25.020Z,101373.23
2023-01-26T04:58:54.442Z,101377.98
2023-01-26T05:01:23.580Z,101381.88
2023-01-26T05:03:52.738Z,101380.91
2023-01-26T05:06:21.309Z,101378.10
2023-01-26T05:08:50.985Z,101384.02
2023-01-26T05:11:19.332Z,101388.92
2023-01-26T05:14:02.023Z,101385.61
2023-01-26T05:16:57.849Z,101389.01
2023-01-26T05:19:43.095Z,101389.80
2023-01-26T05:22:34.309Z,101390.17
2023-01-26T05:25:22.246Z,101385.20
2023-01-26T05:28:04.944Z,101387.36
2023-01-26T05:30:33.124Z,101385.35
2023-01-26T05:33:06.182Z,101395.27
2023-01-26T05:35:35.445Z,101393.05
2023-01-26T05:38:04.670Z,101391.95
2023-01-26T05:40:34.327Z,101394.44
2023-01-26T05:43:02.706Z,101396.04
2023-01-26T05:45:59.491Z,101400.98
2023-01-26T05:48:27.695Z,101398.42
2023-01-26T05:50:57.813Z,101401.25
2023-01-26T05:53:26.868Z,101402.63
2023-01-26T05:55:55.324Z,101405.13
2023-01-26T05:58:25.623Z,101404.41
2023-01-26T06:00:54.446Z,101408.65
2023-01-26T06:03:25.709Z,101405.64
2023-01-26T06:05:54.916Z,101411.06
2023-01-26T06:08:32.268Z,101407.17
2023-01-26T06:11:20.606Z,101401.42
2023-01-26T06:14:06.612Z,101401.20
2023-01-26T06:16:35.005Z,101398.63
2023-01-26T06:19:03.453Z,101397.17
2023-01-26T06:21:33.074Z,101401.25
2023-01-26T06:24:01.306Z,101395.41
2023-01-26T06:26:29.720Z,101390.77
2023-01-26T06:28:58.805Z,101390.98
2023-01-26T06:31:29.867Z,101391.08
2023-01-26T06:34:00.283Z,101390.63
2023-01-26T06:36:29.056Z,101397.90
2023-01-26T06:39:00.458Z,101394.83
2023-01-26T06:41:29.623Z,101396.84
2023-01-26T06:43:57.892Z,101392.02
2023-01-26T06:46:26.490Z,101393.90
2023-01-26T06:48:56.119Z,101394.59
2023-01-26T06:51:52.552Z,101397.67
2023-01-26T06:54:21.311Z,101399.48
2023-01-26T06:57:11.871Z,101402.24
2023-01-26T06:59:40.848Z,101400.41
2023-01-26T07:02:26.236Z,101398.74
2023-01-26T07:04:54.318Z,101394.44
2023-01-26T07:07:24.681Z,101395.20
2023-01-26T07:10:13.018Z,101396.27
2023-01-26T07:12:42.688Z,101395.42
2023-01-26T07:15:11.621Z,101398.21
2023-01-26T07:17:40.717Z,101399.56
2023-01-26T07:20:10.485Z,101401.42
2023-01-26T07:22:38.877Z,101397.94
2023-01-26T07:25:09.234Z,101406.36
2023-01-26T07:27:37.622Z,101405.84
2023-01-26T07:30:06.855Z,101408.36
2023-01-26T07:32:34.873Z,101404.40
2023-01-26T07:35:03.040Z,101402.99
2023-01-26T07:37:31.362Z,101400.06
2023-01-26T07:40:02.573Z,101398.68
2023-01-26T07:42:31.255Z,101394.46
2023-01-26T07:45:09.173Z,101394.57
2023-01-26T07:47:41.224Z,101394.58
2023-01-26T07:50:11.639Z,101396.16
2023-01-26T07:52:40.443Z,101399.00
2023-01-26T07:55:08.537Z,101399.21
2023-01-26T07:57:36.625Z,101398.74
2023-01-26T08:00:05.457Z,101398.66
2023-01-26T08:02:39.959Z,101403.33
2023-01-26T08:05:09.021Z,101400.27
2023-01-26T08:07:37.256Z,101400.33
2023-01-26T08:10:06.084Z,101400.66
2023-01-26T08:12:40.836Z,101396.50
2023-01-26T08:15:10.947Z,101397.39
2023-01-26T08:17:39.943Z,101401.63
2023-01-26T08:20:09.861Z,101408.46
2023-01-26T08:22:39.109Z,101407.92
2023-01-26T08:25:08.252Z,101408.40
2023-01-26T08:27:36.378Z,101410.02
2023-01-26T08:30:05.182Z,101403.74
2023-01-26T08:32:33.956Z,101404.65
2023-01-26T08:35:02.146Z,101403.63
2023-01-26T08:37:30.543Z,101403.20
2023-01-26T08:39:58.678Z,101397.78
2023-01-26T08:42:26.799Z,101400.95
2023-01-26T08:44:55.021Z,101400.19
2023-01-26T08:47:23.813Z,101394.84
2023-01-26T08:49:52.000Z,101391.69
2023-01-26T08:52:21.617Z,101390.80
2023-01-26T08:54:49.728Z,101391.88
2023-01-26T08:57:17.945Z,101391.36
2023-01-26T08:59:46.320Z,101382.54
2023-01-26T09:02:14.653Z,101379.33
2023-01-26T09:04:43.189Z,101375.80
2023-01-26T09:07:13.410Z,101374.80
2023-01-26T09:09:41.676Z,101375.41
2023-01-26T09:12:09.752Z,101370.46
2023-01-26T09:14:39.277Z,101367.81
2023-01-26T09:17:07.492Z,101374.59
2023-01-26T09:19:35.883Z,101366.23
2023-01-26T09:22:04.063Z,101362.37
2023-01-26T09:24:32.285Z,101360.77
2023-01-26T09:27:00.761Z,101354.60
2023-01-26T09:29:29.127Z,101355.63
2023-01-26T09:31:57.275Z,101355.52
2023-01-26T09:34:25.571Z,101354.10
2023-01-26T09:36:53.763Z,101355.73
2023-01-26T09:39:21.857Z,101341.05
2023-01-26T09:41:56.536Z,101341.13
2023-01-26T09:44:25.946Z,101337.72
2023-01-26T09:47:08.552Z,101335.48
2023-01-26T09:49:45.192Z,101341.05
2023-01-26T09:52:31.096Z,101341.24
2023-01-26T09:55:02.796Z,101342.77
2023-01-26T09:57:42.604Z,101339.71
2023-01-26T10:00:21.844Z,101338.06
2023-01-26T10:03:20.915Z,101333.92
2023-01-26T10:05:54.044Z,101329.10
2023-01-26T10:08:42.385Z,101324.65
2023-01-26T10:11:46.457Z,101323.81
2023-01-26T10:14:42.616Z,101317.50
2023-01-26T10:17:32.189Z,101311.79
2023-01-26T10:20:39.619Z,101309.80
2023-01-26T10:23:12.908Z,101305.33
2023-01-26T10:25:41.974Z,101304.89
2023-01-26T10:28:14.388Z,101298.90
2023-01-26T10:30:44.731Z,101294.58
2023-01-26T10:33:19.356Z,101293.94
2023-01-26T10:35:47.869Z,101289.98
2023-01-26T10:38:34.466Z,101287.70
2023-01-26T10:41:18.752Z,101288.40
2023-01-26T10:44:01.566Z,101283.63
2023-01-26T10:46:36.545Z,101280.87
2023-01-26T10:49:20.037Z,101276.48
2023-01-26T10:52:09.404Z,101280.09
2023-01-26T10:54:39.835Z,101279.67
2023-01-26T10:57:16.860Z,101278.25
2023-01-26T10:59:56.268Z,101274.35
2023-01-26T11:02:28.044Z,101277.17
2023-01-26T11:05:08.281Z,101277.96
2023-01-26T11:07:40.429Z,101278.59
2023-01-26T11:10:19.312Z,101273.11
2023-01-26T11:12:48.485Z,101271.99
2023-01-26T11:15:17.034Z,101262.07
2023-01-26T11:17:51.562Z,101262.45
2023-01-26T11:20:52.110Z,101257.42
2023-01-26T11:23:42.717Z,101254.62
2023-01-26T11:26:26.771Z,101254.17
2023-01-26T11:29:19.129Z,101252.38
2023-01-26T11:32:08.011Z,101247.84
2023-01-26T11:34:57.097Z,101254.38
2023-01-26T11:37:54.053Z,101249.64
2023-01-26T11:40:31.130Z,101252.94
2023-01-26T11:43:07.064Z,101246.75
2023-01-26T11:45:40.655Z,101244.13
2023-01-26T11:48:29.919Z,101240.98
2023-01-26T11:51:04.749Z,101242.65
2023-01-26T11:53:55.221Z,101243.95
2023-01-26T11:56:48.899Z,101243.98
2023-01-26T11:59:22.779Z,101242.50
2023-01-26T12:02:04.215Z,101242.30
2023-01-26T12:04:35.794Z,101240.58
2023-01-26T14:05:20.962Z,101179.17
2023-01-26T14:07:47.968Z,101177.21
2023-01-26T14:10:17.642Z,101182.64
2023-01-26T14:12:56.639Z,101183.27
2023-01-26T14:15:30.069Z,101185.25
2023-01-26T14:17:58.595Z,101179.55
2023-01-26T14:20:28.669Z,101179.45
2023-01-26T14:23:03.424Z,101180.55
2023-01-26T14:25:30.214Z,101181.97
2023-01-26T14:27:56.704Z,101180.20
2023-01-26T14:30:29.198Z,101175.59
2023-01-26T14:32:58.683Z,101173.83
2023-01-26T14:35:25.288Z,101171.91
2023-01-26T14:38:16.006Z,101171.67
2023-01-26T14:40:52.455Z,101165.77
2023-01-26T14:54:51.672Z,101163.05
2023-01-26T14:57:21.107Z,101167.91
2023-01-26T14:59:50.966Z,101164.42
2023-01-26T15:02:23.854Z,101161.81
2023-01-26T15:04:59.079Z,101159.58
2023-01-26T15:07:39.214Z,101157.26
2023-01-26T15:10:42.017Z,101152.20
2023-01-26T15:13:10.705Z,101151.19
2023-01-26T15:15:40.520Z,101155.76
2023-01-26T15:18:14.934Z,101157.43
2023-01-26T15:20:43.010Z,101156.73
2023-01-26T15:23:30.044Z,101156.77
2023-01-26T15:26:31.712Z,101160.83
2023-01-26T15:29:04.779Z,101157.04
2023-01-26T15:31:34.829Z,101156.11
2023-01-26T15:34:03.576Z,101157.80
2023-01-26T15:36:49.154Z,101153.91
2023-01-26T15:39:20.924Z,101153.08
2023-01-26T15:42:10.768Z,101147.70
2023-01-26T15:44:38.828Z,101152.13
2023-01-26T15:47:11.460Z,101151.22
2023-01-26T15:49:39.747Z,101151.34
2023-01-26T15:52:14.876Z,101146.61
2023-01-26T15:54:45.258Z,101145.15
2023-01-26T15:57:13.532Z,101144.08
2023-01-26T15:59:41.747Z,101146.48
2023-01-26T16:02:19.389Z,101141.92
2023-01-26T16:04:47.700Z,101146.55
2023-01-26T16:07:17.494Z,101146.78
2023-01-26T16:09:45.505Z,101143.84
2023-01-26T16:12:32.740Z,101145.24
2023-01-26T16:15:01.192Z,101145.20
2023-01-26T16:17:29.570Z,101147.56
2023-01-26T16:19:57.737Z,101147.46
2023-01-26T16:22:25.921Z,101150.44
2023-01-26T16:24:54.195Z,101148.98
2023-01-26T16:27:22.774Z,101145.25
2023-01-26T16:29:51.165Z,101143.11
2023-01-26T16:32:29.230Z,101145.10
2023-01-26T16:34:57.624Z,101148.60
2023-01-26T16:37:25.742Z,101147.50
2023-01-26T16:39:53.736Z,101144.49
2023-01-26T16:42:22.410Z,101142.69
2023-01-26T16:44:50.944Z,101139.92
2023-01-26T16:47:18.922Z,101136.40
2023-01-26T16:49:50.442Z,101136.15
2023-01-26T16:52:18.478Z,101135.27
2023-01-26T16:54:48.385Z,101136.56
2023-01-26T16:57:17.483Z,101140.78
2023-01-26T16:59:45.791Z,101144.34
2023-01-26T17:02:23.268Z,101148.47
2023-01-26T17:04:51.253Z,101148.80
2023-01-26T17:07:19.576Z,101146.98
2023-01-26T17:09:47.629Z,101146.59
2023-01-26T17:12:15.751Z,101149.05
2023-01-26T17:14:44.023Z,101147.77
2023-01-26T17:17:12.155Z,101147.04
2023-01-26T17:19:40.489Z,101149.13
2023-01-26T17:22:08.501Z,101148.02
2023-01-26T17:24:36.639Z,101148.02
2023-01-26T17:27:05.377Z,101147.92
2023-01-26T17:29:33.944Z,101150.38
2023-01-26T17:32:02.526Z,101148.89
2023-01-26T17:34:30.598Z,101151.70
2023-01-26T17:37:00.075Z,101147.42
2023-01-26T17:39:28.017Z,101146.25
2023-01-26T17:41:56.566Z,101147.95
2023-01-26T17:44:24.566Z,101147.58
2023-01-26T17:46:53.514Z,101143.17
2023-01-26T17:49:21.672Z,101147.30
2023-01-26T17:51:49.687Z,101145.93
2023-01-26T17:54:19.367Z,101148.35
2023-01-26T17:56:47.532Z,101148.73
2023-01-26T17:59:15.675Z,101150.63
2023-01-26T18:01:43.708Z,101149.38
2023-01-26T18:04:11.755Z,101149.79
2023-01-26T20:07:07.687Z,101090.85
2023-01-26T20:09:36.020Z,101084.56
2023-01-26T20:23:54.902Z,101076.77
2023-01-26T20:26:26.871Z,101075.09
2023-01-26T20:28:57.936Z,101080.88
2023-01-26T20:31:26.639Z,101087.40
2023-01-26T20:33:58.567Z,101088.63
2023-01-26T20:36:27.857Z,101087.03
2023-01-26T20:38:55.829Z,101089.89
2023-01-26T20:41:27.512Z,101089.24
2023-01-26T20:44:00.463Z,101091.85
2023-01-26T20:46:32.550Z,101094.16
2023-01-26T20:49:00.764Z,101091.55
2023-01-26T20:51:31.267Z,101088.41
2023-01-26T20:53:59.525Z,101090.11
2023-01-26T20:56:27.632Z,101089.83
2023-01-26T20:58:56.022Z,101082.70
2023-01-26T21:01:24.131Z,101072.02
2023-01-26T21:03:52.398Z,101072.36
2023-01-26T21:06:20.982Z,101073.10
2023-01-26T21:08:49.617Z,101075.29
2023-01-26T21:11:23.411Z,101077.48
2023-01-26T21:13:54.636Z,101076.23
2023-01-26T21:16:23.571Z,101077.27
2023-01-26T21:18:52.305Z,101073.34
2023-01-26T21:21:21.810Z,101075.02
2023-01-26T21:23:50.763Z,101072.64
2023-01-26T21:26:22.365Z,101068.95
2023-01-26T21:28:52.106Z,101072.88
2023-01-26T21:31:21.344Z,101073.73
2023-01-26T21:33:49.751Z,101072.39
2023-01-26T21:36:20.381Z,101070.86
2023-01-26T21:38:50.893Z,101064.61
2023-01-26T21:41:55.878Z,101060.52
2023-01-26T21:44:25.173Z,101056.93
2023-01-26T21:47:01.220Z,101055.41
2023-01-26T21:49:29.555Z,101048.80
2023-01-26T21:52:17.651Z,101046.00
2023-01-26T21:54:46.317Z,101048.48
2023-01-26T21:57:33.040Z,101044.85
2023-01-26T22:00:03.765Z,101043.87
2023-01-26T22:02:32.996Z,101036.09
2023-01-26T22:05:01.211Z,101034.51
2023-01-26T22:07:32.276Z,101028.38
2023-01-26T22:10:00.497Z,101029.54
2023-01-26T22:21:33.492Z,101025.58
2023-01-26T22:24:01.630Z,101024.88
2023-01-26T22:26:30.548Z,101026.81
2023-01-26T22:29:00.259Z,101024.65
2023-01-26T22:31:29.128Z,101021.35
2023-01-26T22:33:58.244Z,101018.98
2023-01-26T22:36:27.065Z,101015.24
2023-01-26T22:38:55.310Z,101007.95
2023-01-26T22:41:25.221Z,101006.73
2023-01-26T22:43:55.220Z,100997.55
2023-01-26T22:46:24.119Z,100993.39
2023-01-26T22:48:52.267Z,100998.08
2023-01-26T22:51:22.319Z,100991.20
2023-01-26T22:53:51.557Z,100994.55
2023-01-26T22:56:20.132Z,100994.39
2023-01-26T22:59:00.140Z,100986.41
2023-01-26T23:01:29.991Z,100986.35
2023-01-26T23:03:59.078Z,100984.98
2023-01-26T23:06:27.685Z,100984.78
2023-01-26T23:09:01.173Z,100985.52
2023-01-26T23:11:30.749Z,100986.02
2023-01-26T23:13:59.109Z,100984.77
2023-01-26T23:16:27.649Z,100974.52
2023-01-26T23:18:56.837Z,100976.46
2023-01-26T23:21:25.256Z,100967.70
2023-01-26T23:23:53.349Z,100967.62
2023-01-26T23:26:21.523Z,100967.83
2023-01-26T23:28:49.519Z,100965.85
2023-01-26T23:31:18.555Z,100970.14
2023-01-26T23:33:46.895Z,100972.81
2023-01-26T23:36:16.727Z,100975.08
2023-01-26T23:38:45.869Z,100974.66
2023-01-26T23:41:14.468Z,100981.77
2023-01-26T23:43:42.519Z,100980.52
2023-01-26T23:46:11.430Z,100979.23
2023-01-26T23:48:39.419Z,100985.26
2023-01-26T23:51:09.209Z,100985.43
2023-01-26T23:53:38.048Z,100983.58
2023-01-26T23:56:08.814Z,100987.83
2023-01-26T23:58:37.667Z,100984.33
